Time;durP1;ratioP1;P1;durP2;ratioP2;P2;SDS_P1;SDS_P2;PMS_P1;PMS_P2;Temp;Humidity;BMP_temperature;BMP_pressure;BME280_temperature;BME280_humidity;BME280_pressure;Samples;Min_cycle;Max_cycle;Signal;HPM_P1;HPM_P2
2022/03/17 00:02:34;;;;;;;;;;;;;;;9.06;73.43;100285.75;5015228;28;19963;-64
2022/03/17 00:05:18;;;;;;;;;;;;;;;9.07;73.48;100279.75;5015381;28;20003;-64
2022/03/17 00:08:03;;;;;;;;;;;;;;;9.06;73.24;100286.66;5015049;28;19924;-64
2022/03/17 00:10:47;;;;;;;;;;;;;;;9.07;73.44;100282.34;5013926;28;19924;-64
2022/03/17 00:13:31;;;;;;;;;;;;;;;9.07;73.23;100287.50;5015390;28;19943;-65
2022/03/17 00:16:15;;;;;;;;;;;;;;;9.07;73.34;100284.94;5013783;28;19924;-65
2022/03/17 00:19:03;;;;;;;;;;;;;;;9.06;73.37;100275.41;5014489;28;19925;-65
2022/03/17 00:21:47;;;;;;;;;;;;;;;9.07;73.32;100272.00;5015576;28;19924;-64
2022/03/17 00:24:30;;;;;;;;;;;;;;;9.07;73.66;100275.47;5014360;28;19924;-64
2022/03/17 00:27:14;;;;;;;;;;;;;;;9.08;73.56;100287.56;5014867;28;19928;-64
2022/03/17 00:29:58;;;;;;;;;;;;;;;9.08;73.50;100281.50;5014522;28;19924;-65
2022/03/17 00:32:42;;;;;;;;;;;;;;;9.09;73.38;100278.09;5014862;28;19972;-64
2022/03/17 00:35:35;;;;;;;;;;;;;;;9.08;73.32;100289.28;5014251;28;19928;-64
2022/03/17 00:38:19;;;;;;;;;;;;;;;9.08;73.45;100285.00;5013484;28;19924;-65
2022/03/17 00:41:03;;;;;;;;;;;;;;;9.07;73.66;100285.81;5014397;28;20296;-65
2022/03/17 00:43:47;;;;;;;;;;;;;;;9.09;73.52;100293.59;5014512;28;19971;-64
2022/03/17 00:46:31;;;;;;;;;;;;;;;9.09;73.44;100297.09;5014082;28;19924;-66
2022/03/17 00:49:15;;;;;;;;;;;;;;;9.10;73.57;100305.69;5014388;28;19924;-65
2022/03/17 00:51:59;;;;;;;;;;;;;;;9.09;73.61;100307.44;5013947;28;19934;-65
2022/03/17 00:54:43;;;;;;;;;;;;;;;9.10;73.47;100311.75;5014758;28;19924;-65
2022/03/17 00:57:27;;;;;;;;;;;;;;;9.10;73.50;100311.75;5014440;28;19971;-65
2022/03/17 01:00:14;;;;;;;;;;;;;;;9.11;73.79;100316.06;5013599;28;20012;-65
2022/03/17 01:02:58;;;;;;;;;;;;;;;9.11;73.50;100308.31;5012936;28;19924;-64
2022/03/17 01:05:42;;;;;;;;;;;;;;;9.11;73.42;100312.63;5013149;28;19924;-64
2022/03/17 01:08:26;;;;;;;;;;;;;;;9.10;73.57;100318.63;5014209;28;20403;-64
2022/03/17 01:11:10;;;;;;;;;;;;;;;9.10;73.73;100308.28;5014069;28;19940;-64
2022/03/17 01:13:54;;;;;;;;;;;;;;;9.09;73.72;100322.94;5014449;28;20004;-65
2022/03/17 01:16:38;;;;;;;;;;;;;;;9.10;73.70;100322.13;5013485;28;19959;-64
2022/03/17 01:19:22;;;;;;;;;;;;;;;9.11;73.65;100318.66;5013629;28;19924;-64
2022/03/17 01:22:07;;;;;;;;;;;;;;;9.10;73.63;100316.94;5012834;28;19975;-65
2022/03/17 01:24:54;;;;;;;;;;;;;;;9.10;73.67;100316.03;5013721;28;19963;-64
2022/03/17 01:27:38;;;;;;;;;;;;;;;9.10;73.64;100318.63;5014102;28;19924;-65
2022/03/17 01:30:22;;;;;;;;;;;;;;;9.10;73.76;100313.47;5013808;28;19988;-64
2022/03/17 01:33:06;;;;;;;;;;;;;;;9.09;73.54;100322.94;5014203;28;19951;-65
2022/03/17 01:35:49;;;;;;;;;;;;;;;9.10;73.71;100322.13;5013333;28;20007;-64
2022/03/17 01:38:34;;;;;;;;;;;;;;;9.10;73.72;100326.38;5012822;28;20027;-64
2022/03/17 01:41:17;;;;;;;;;;;;;;;9.10;73.74;100324.69;5014406;28;19940;-65
2022/03/17 01:44:02;;;;;;;;;;;;;;;9.10;73.99;100319.53;5013512;28;19980;-65
2022/03/17 01:49:48;;;;;;;;;;;;;;;9.11;73.95;100320.38;5013787;28;19924;-65
2022/03/17 01:52:32;;;;;;;;;;;;;;;9.11;74.00;100321.25;5013993;28;19924;-65
2022/03/17 01:55:17;;;;;;;;;;;;;;;9.13;73.88;100324.75;5013368;28;19928;-64
2022/03/17 01:58:01;;;;;;;;;;;;;;;9.13;74.00;100310.97;5015737;28;20018;-65
2022/03/17 02:00:48;;;;;;;;;;;;;;;9.12;73.82;100314.38;5017173;28;19966;-65
2022/03/17 02:03:31;;;;;;;;;;;;;;;9.11;74.11;100317.78;5016861;28;19924;-65
2022/03/17 02:06:15;;;;;;;;;;;;;;;9.12;73.75;100322.13;5015880;28;19939;-65
2022/03/17 02:08:59;;;;;;;;;;;;;;;9.11;73.87;100330.72;5017688;28;19923;-64
2022/03/17 02:14:50;;;;;;;;;;;;;;;9.10;73.89;100340.22;5017515;28;19929;-65
2022/03/17 02:17:39;;;;;;;;;;;;;;;9.10;73.95;100340.22;5015959;28;19924;-64
2022/03/17 02:20:25;;;;;;;;;;;;;;;9.11;74.10;100341.06;5016103;28;19987;-65
2022/03/17 02:26:12;;;;;;;;;;;;;;;9.10;73.92;100345.38;5016877;28;19940;-65
2022/03/17 02:28:56;;;;;;;;;;;;;;;9.11;73.99;100354.84;5017045;28;20015;-64
2022/03/17 02:31:39;;;;;;;;;;;;;;;9.10;74.26;100357.41;5016400;28;19924;-65
2022/03/17 02:34:23;;;;;;;;;;;;;;;9.10;74.01;100360.91;5015837;28;19940;-65
2022/03/17 02:37:07;;;;;;;;;;;;;;;9.11;74.25;100362.63;5016268;28;19963;-64
2022/03/17 02:39:51;;;;;;;;;;;;;;;9.13;74.13;100366.13;5016593;28;19925;-64
2022/03/17 02:42:36;;;;;;;;;;;;;;;9.13;73.96;100362.69;5016300;28;19924;-64
2022/03/17 02:45:21;;;;;;;;;;;;;;;9.13;74.04;100371.28;5015806;28;19924;-64
2022/03/17 02:48:05;;;;;;;;;;;;;;;9.12;74.10;100369.53;5016140;28;20339;-64
2022/03/17 02:50:49;;;;;;;;;;;;;;;9.11;74.16;100370.38;5016547;28;20380;-64
2022/03/17 02:53:33;;;;;;;;;;;;;;;9.12;74.19;100377.31;5016540;28;19924;-64
2022/03/17 02:56:16;;;;;;;;;;;;;;;9.11;74.17;100370.38;5015263;28;20434;-64
2022/03/17 02:59:00;;;;;;;;;;;;;;;9.13;74.17;100383.38;5016765;28;19925;-64
2022/03/17 03:01:44;;;;;;;;;;;;;;;9.13;74.25;100396.28;5015492;28;19924;-64
2022/03/17 03:04:28;;;;;;;;;;;;;;;9.14;74.11;100404.09;5015701;28;19924;-64
2022/03/17 03:07:12;;;;;;;;;;;;;;;9.15;74.13;100415.31;5016441;28;19923;-65
2022/03/17 03:09:56;;;;;;;;;;;;;;;9.16;74.19;100416.19;5016311;28;19927;-64
2022/03/17 03:12:41;;;;;;;;;;;;;;;9.16;74.26;100414.50;5016212;28;20388;-64
2022/03/17 03:15:24;;;;;;;;;;;;;;;9.16;74.24;100422.25;5016071;28;19971;-64
2022/03/17 03:18:08;;;;;;;;;;;;;;;9.17;74.44;100433.44;5016129;28;19924;-64
2022/03/17 03:20:53;;;;;;;;;;;;;;;9.18;74.50;100437.78;5015891;28;19924;-64
2022/03/17 03:23:37;;;;;;;;;;;;;;;9.19;74.40;100436.97;5015711;28;19924;-65
2022/03/17 03:26:21;;;;;;;;;;;;;;;9.20;74.28;100456.81;5015858;28;19980;-64
2022/03/17 03:29:07;;;;;;;;;;;;;;;9.18;74.68;100461.97;5015840;28;19940;-65
2022/03/17 03:31:52;;;;;;;;;;;;;;;9.19;74.65;100486.97;5015127;28;19924;-65
2022/03/17 03:34:36;;;;;;;;;;;;;;;9.17;74.65;100493.81;5014773;28;19963;-65
2022/03/17 03:37:22;;;;;;;;;;;;;;;9.13;74.90;100513.53;5015076;28;19924;-64
2022/03/17 03:40:07;;;;;;;;;;;;;;;9.10;74.99;100516.03;5014940;28;20288;-64
2022/03/17 03:42:51;;;;;;;;;;;;;;;9.10;74.69;100513.47;5015349;28;20016;-65
2022/03/17 03:45:35;;;;;;;;;;;;;;;9.08;74.95;100524.56;5014479;28;20443;-64
2022/03/17 03:48:19;;;;;;;;;;;;;;;9.08;74.87;100540.09;5015104;28;20388;-64
2022/03/17 03:51:03;;;;;;;;;;;;;;;9.04;74.89;100546.88;5015774;28;19996;-64
2022/03/17 03:56:51;;;;;;;;;;;;;;;9.03;75.11;100576.16;5015294;28;19963;-65
2022/03/17 03:59:35;;;;;;;;;;;;;;;9.01;74.96;100577.81;5014849;28;19925;-65
2022/03/17 04:02:19;;;;;;;;;;;;;;;8.99;75.15;100589.81;5014948;28;20016;-65
2022/03/17 04:05:03;;;;;;;;;;;;;;;9.00;75.02;100591.56;5015076;28;19924;-64
2022/03/17 04:07:47;;;;;;;;;;;;;;;8.98;75.06;100590.63;5014149;28;19923;-64
2022/03/17 04:10:31;;;;;;;;;;;;;;;8.97;75.11;100596.63;5014145;28;19924;-64
2022/03/17 04:13:15;;;;;;;;;;;;;;;8.97;75.03;100618.19;5013998;28;19924;-64
2022/03/17 04:15:59;;;;;;;;;;;;;;;8.95;75.12;100613.81;5014040;28;19924;-64
2022/03/17 04:18:43;;;;;;;;;;;;;;;8.95;75.19;100613.81;5014747;28;19959;-65
2022/03/17 04:21:27;;;;;;;;;;;;;;;8.92;75.29;100613.72;5014099;28;20350;-64
2022/03/17 04:24:11;;;;;;;;;;;;;;;8.92;75.15;100619.75;5014824;28;19940;-64
2022/03/17 04:26:55;;;;;;;;;;;;;;;8.93;75.23;100625.81;5015003;28;19924;-64
2022/03/17 04:29:40;;;;;;;;;;;;;;;8.90;75.15;100636.91;5014560;28;19972;-65
2022/03/17 04:32:24;;;;;;;;;;;;;;;8.89;75.28;100637.75;5013551;28;19940;-64
2022/03/17 04:35:08;;;;;;;;;;;;;;;8.88;75.35;100650.63;5014742;28;19940;-65
2022/03/17 04:37:52;;;;;;;;;;;;;;;8.87;75.27;100657.53;5014673;28;19925;-65
2022/03/17 04:40:36;;;;;;;;;;;;;;;8.87;75.28;100662.69;5013939;28;19970;-65
2022/03/17 04:43:20;;;;;;;;;;;;;;;8.84;75.46;100663.44;5013689;28;19975;-64
2022/03/17 04:46:04;;;;;;;;;;;;;;;8.86;75.32;100670.38;5014589;28;19971;-64
2022/03/17 04:48:49;;;;;;;;;;;;;;;8.85;75.31;100664.34;5013855;28;19924;-64
2022/03/17 04:51:33;;;;;;;;;;;;;;;8.84;75.33;100681.53;5013951;28;19940;-64
2022/03/17 04:54:16;;;;;;;;;;;;;;;8.83;75.40;100687.53;5013698;28;19971;-64
2022/03/17 04:57:00;;;;;;;;;;;;;;;8.83;75.22;100697.88;5014176;28;20394;-64
2022/03/17 04:59:44;;;;;;;;;;;;;;;8.82;75.10;100703.88;5014278;28;19924;-65
2022/03/17 05:02:28;;;;;;;;;;;;;;;8.81;75.24;100715.03;5013606;28;19971;-64
2022/03/17 05:05:12;;;;;;;;;;;;;;;8.81;75.03;100716.75;5013276;28;20355;-64
2022/03/17 05:07:57;;;;;;;;;;;;;;;8.81;75.11;100724.50;5012748;28;20036;-64
2022/03/17 05:10:41;;;;;;;;;;;;;;;8.79;75.11;100742.56;5013678;28;19932;-65
2022/03/17 05:13:25;;;;;;;;;;;;;;;8.78;75.58;100745.97;5013821;28;19945;-65
2022/03/17 05:16:09;;;;;;;;;;;;;;;8.76;75.09;100746.72;5014420;28;19964;-64
2022/03/17 05:18:53;;;;;;;;;;;;;;;8.76;75.13;100763.13;5014364;28;19923;-65
2022/03/17 05:21:38;;;;;;;;;;;;;;;8.75;75.12;100760.47;5014147;28;19927;-64
2022/03/17 05:24:22;;;;;;;;;;;;;;;8.76;75.24;100770.00;5012689;28;19946;-64
2022/03/17 05:27:06;;;;;;;;;;;;;;;8.73;75.24;100769.88;5013924;28;19924;-64
2022/03/17 05:29:50;;;;;;;;;;;;;;;8.74;75.27;100775.13;5013838;28;19939;-64
2022/03/17 05:32:34;;;;;;;;;;;;;;;8.74;75.27;100789.72;5015411;28;19979;-64
2022/03/17 05:35:18;;;;;;;;;;;;;;;8.74;75.11;100788.03;5017761;28;19968;-65
2022/03/17 05:38:02;;;;;;;;;;;;;;;8.74;75.11;100789.72;5017989;28;19940;-64
2022/03/17 05:40:46;;;;;;;;;;;;;;;8.73;75.10;100796.63;5017932;28;19980;-64
2022/03/17 05:43:30;;;;;;;;;;;;;;;8.72;75.28;100805.19;5017337;28;19925;-65
2022/03/17 05:46:14;;;;;;;;;;;;;;;8.72;75.25;100810.38;5017000;28;19924;-65
2022/03/17 05:48:58;;;;;;;;;;;;;;;8.72;75.17;100809.50;5018085;28;19924;-64
2022/03/17 05:51:41;;;;;;;;;;;;;;;8.71;75.43;100815.50;5018013;28;20344;-64
2022/03/17 05:54:25;;;;;;;;;;;;;;;8.70;75.23;100830.09;5017554;28;19968;-65
2022/03/17 05:57:10;;;;;;;;;;;;;;;8.71;75.05;100834.44;5017384;28;20296;-64
2022/03/17 05:59:55;;;;;;;;;;;;;;;8.70;75.15;100842.16;5017878;28;19972;-64
2022/03/17 06:02:39;;;;;;;;;;;;;;;8.70;75.25;100852.50;5016628;28;20011;-65
2022/03/17 06:05:23;;;;;;;;;;;;;;;8.67;75.18;100853.25;5017352;28;19924;-64
2022/03/17 06:08:08;;;;;;;;;;;;;;;8.67;75.21;100867.06;5017285;28;20338;-65
2022/03/17 06:10:52;;;;;;;;;;;;;;;8.63;75.07;100872.94;5018158;28;19928;-64
2022/03/17 06:13:36;;;;;;;;;;;;;;;8.62;75.22;100875.47;5017150;28;20371;-65
2022/03/17 06:16:20;;;;;;;;;;;;;;;8.58;75.02;100884.78;5017233;28;20008;-64
2022/03/17 06:19:04;;;;;;;;;;;;;;;8.61;74.94;100900.41;5016980;28;19924;-65
2022/03/17 06:21:48;;;;;;;;;;;;;;;8.61;75.21;100903.00;5017021;28;19924;-64
2022/03/17 06:24:32;;;;;;;;;;;;;;;8.56;75.07;100907.13;5016737;28;19924;-64
2022/03/17 06:27:16;;;;;;;;;;;;;;;8.56;75.07;100919.16;5016830;28;20399;-66
2022/03/17 06:30:05;;;;;;;;;;;;;;;8.53;75.02;100915.63;5017201;28;19925;-64
2022/03/17 06:32:49;;;;;;;;;;;;;;;8.53;75.19;100925.09;5016073;28;20426;-64
2022/03/17 06:35:33;;;;;;;;;;;;;;;8.51;75.01;100924.16;5015856;28;19964;-64
2022/03/17 06:38:17;;;;;;;;;;;;;;;8.52;75.12;100925.91;5015991;28;20023;-65
2022/03/17 06:41:01;;;;;;;;;;;;;;;8.49;75.01;100939.56;5016852;28;19924;-64
2022/03/17 06:43:45;;;;;;;;;;;;;;;8.48;75.02;100943.00;5015719;28;19924;-65
2022/03/17 06:46:29;;;;;;;;;;;;;;;8.49;74.87;100946.47;5016945;28;19971;-65
2022/03/17 06:49:13;;;;;;;;;;;;;;;8.48;74.81;100948.19;5016151;28;19987;-64
2022/03/17 06:51:58;;;;;;;;;;;;;;;8.48;74.93;100955.94;5015187;28;19929;-64
2022/03/17 06:54:43;;;;;;;;;;;;;;;8.49;74.84;100961.97;5015796;28;19924;-65
2022/03/17 06:57:27;;;;;;;;;;;;;;;8.48;74.81;100962.78;5015875;28;19928;-64
2022/03/17 07:00:12;;;;;;;;;;;;;;;8.48;74.72;100973.13;5015539;28;20384;-64
2022/03/17 07:02:55;;;;;;;;;;;;;;;8.48;74.75;100981.75;5016360;28;19975;-64
2022/03/17 07:05:39;;;;;;;;;;;;;;;8.47;74.70;100989.41;5016016;28;19924;-64
2022/03/17 07:08:23;;;;;;;;;;;;;;;8.44;74.74;100984.09;5015940;28;19923;-64
2022/03/17 07:11:07;;;;;;;;;;;;;;;8.45;74.72;100999.69;5015799;28;19967;-64
2022/03/17 07:13:51;;;;;;;;;;;;;;;8.42;74.74;100999.56;5016321;28;19924;-64
2022/03/17 07:16:35;;;;;;;;;;;;;;;8.42;74.58;100999.56;5015936;28;19947;-65
2022/03/17 07:19:19;;;;;;;;;;;;;;;8.41;74.73;101012.44;5016013;28;19968;-63
2022/03/17 07:22:03;;;;;;;;;;;;;;;8.40;74.70;101019.28;5016164;28;19967;-64
2022/03/17 07:24:47;;;;;;;;;;;;;;;8.41;74.50;101026.22;5014663;28;19928;-65
2022/03/17 07:27:36;;;;;;;;;;;;;;;8.39;74.66;101030.44;5015840;28;20335;-64
2022/03/17 07:30:22;;;;;;;;;;;;;;;8.42;74.61;101029.66;5015139;28;19928;-64
2022/03/17 07:33:06;;;;;;;;;;;;;;;8.42;74.66;101033.13;5015341;28;19940;-64
2022/03/17 07:35:50;;;;;;;;;;;;;;;8.43;74.62;101046.94;5015695;28;20064;-64
2022/03/17 07:38:33;;;;;;;;;;;;;;;8.44;74.57;101046.09;5014513;28;20467;-64
2022/03/17 07:41:17;;;;;;;;;;;;;;;8.44;74.60;101048.69;5015197;28;20009;-65
2022/03/17 07:44:02;;;;;;;;;;;;;;;8.42;74.61;101055.50;5015066;28;19924;-64
2022/03/17 07:46:46;;;;;;;;;;;;;;;8.44;74.47;101062.50;5015294;28;19923;-67
2022/03/17 07:49:29;;;;;;;;;;;;;;;8.42;74.35;101071.00;5014941;28;20016;-64
2022/03/17 07:52:14;;;;;;;;;;;;;;;8.45;74.31;101076.28;5015211;28;19972;-64
2022/03/17 07:54:57;;;;;;;;;;;;;;;8.44;74.34;101078.00;5014929;28;19924;-64
2022/03/17 07:57:41;;;;;;;;;;;;;;;8.45;74.44;101079.78;5015146;28;19924;-65
2022/03/17 08:00:25;;;;;;;;;;;;;;;8.45;74.35;101084.03;5015358;28;19947;-64
2022/03/17 08:03:09;;;;;;;;;;;;;;;8.45;74.30;101091.78;5014482;28;19968;-65
2022/03/17 08:05:54;;;;;;;;;;;;;;;8.44;74.35;101097.78;5014339;28;20292;-64
2022/03/17 08:08:38;;;;;;;;;;;;;;;8.44;74.05;101108.09;5015293;28;19923;-64
2022/03/17 08:11:23;;;;;;;;;;;;;;;8.43;74.30;101102.06;5014344;28;20359;-64
2022/03/17 08:14:07;;;;;;;;;;;;;;;8.45;74.51;101113.34;5015031;28;19924;-65
2022/03/17 08:16:51;;;;;;;;;;;;;;;8.42;74.17;101118.38;5014899;28;20012;-65
2022/03/17 08:19:35;;;;;;;;;;;;;;;8.44;74.24;101126.19;5014797;28;19924;-64
2022/03/17 08:22:20;;;;;;;;;;;;;;;8.44;74.20;101127.09;5014619;28;19940;-65
2022/03/17 08:25:04;;;;;;;;;;;;;;;8.44;74.29;101137.44;5014815;28;20400;-65
2022/03/17 08:27:50;;;;;;;;;;;;;;;8.43;74.42;101145.09;5014601;28;19923;-64
2022/03/17 08:30:36;;;;;;;;;;;;;;;8.42;74.28;101145.91;5014688;28;20347;-64
2022/03/17 08:33:20;;;;;;;;;;;;;;;8.43;74.42;101152.84;5014332;28;19925;-64
2022/03/17 08:36:05;;;;;;;;;;;;;;;8.41;74.37;101165.72;5013787;28;19968;-64
2022/03/17 08:38:54;;;;;;;;;;;;;;;8.40;74.35;101161.34;5014675;28;19924;-64
2022/03/17 08:41:38;;;;;;;;;;;;;;;8.40;74.17;101174.28;5013993;28;19944;-65
2022/03/17 08:44:22;;;;;;;;;;;;;;;8.40;74.26;101170.81;5014283;28;20079;-64
2022/03/17 08:50:09;;;;;;;;;;;;;;;8.42;74.43;101189.84;5014476;28;19939;-64
2022/03/17 08:52:53;;;;;;;;;;;;;;;8.42;74.35;101189.84;5014279;28;19964;-64
2022/03/17 08:55:37;;;;;;;;;;;;;;;8.40;74.23;101192.34;5014380;28;19923;-64
2022/03/17 08:58:23;;;;;;;;;;;;;;;8.41;74.23;101198.44;5014507;28;19991;-64
2022/03/17 09:01:07;;;;;;;;;;;;;;;8.43;74.37;101207.09;5014279;28;19945;-64
2022/03/17 09:03:52;;;;;;;;;;;;;;;8.45;74.18;101214.13;5013876;28;19964;-64
2022/03/17 09:06:37;;;;;;;;;;;;;;;8.44;74.37;101214.03;5012971;28;19963;-64
2022/03/17 09:09:20;;;;;;;;;;;;;;;8.45;74.10;101218.38;5014000;28;19963;-64
2022/03/17 09:12:05;;;;;;;;;;;;;;;8.44;74.07;101222.69;5014176;28;19923;-64
2022/03/17 09:14:49;;;;;;;;;;;;;;;8.42;74.09;101219.16;5013948;28;19964;-64
2022/03/17 09:17:33;;;;;;;;;;;;;;;8.45;74.19;101236.47;5014528;28;19925;-64
2022/03/17 09:20:17;;;;;;;;;;;;;;;8.42;74.17;101231.16;5014024;28;19970;-64
2022/03/17 09:23:02;;;;;;;;;;;;;;;8.41;73.99;101232.00;5014210;28;19931;-65
2022/03/17 09:25:46;;;;;;;;;;;;;;;8.40;74.02;101244.03;5013504;28;20289;-65
2022/03/17 09:28:29;;;;;;;;;;;;;;;8.39;73.99;101242.25;5013823;28;19955;-64
2022/03/17 09:31:13;;;;;;;;;;;;;;;8.40;73.88;101248.31;5013564;28;19925;-64
2022/03/17 09:33:57;;;;;;;;;;;;;;;8.37;73.80;101256.81;5013484;28;19928;-64
2022/03/17 09:36:41;;;;;;;;;;;;;;;8.37;73.91;101252.53;5014179;28;20281;-65
2022/03/17 09:42:28;;;;;;;;;;;;;;;8.36;73.71;101261.09;5013980;28;19940;-64
2022/03/17 09:45:12;;;;;;;;;;;;;;;8.40;73.82;101263.81;5014225;28;19979;-64
2022/03/17 09:47:57;;;;;;;;;;;;;;;8.38;73.64;101269.81;5013730;28;20418;-64
2022/03/17 09:50:41;;;;;;;;;;;;;;;8.39;73.77;101278.44;5012879;28;19924;-64
2022/03/17 09:53:26;;;;;;;;;;;;;;;8.38;73.75;101287.00;5013468;28;20028;-64
2022/03/17 09:56:10;;;;;;;;;;;;;;;8.40;73.75;101276.75;5013196;28;19924;-64
2022/03/17 09:58:55;;;;;;;;;;;;;;;8.38;73.74;101290.47;5013404;28;19971;-64
2022/03/17 10:01:39;;;;;;;;;;;;;;;8.40;73.49;101287.94;5013267;28;19925;-65
2022/03/17 10:04:23;;;;;;;;;;;;;;;8.40;73.65;101289.66;5013301;28;19963;-64
2022/03/17 10:07:07;;;;;;;;;;;;;;;8.38;73.48;101299.91;5013539;28;19928;-65
2022/03/17 10:09:51;;;;;;;;;;;;;;;8.36;73.41;101292.09;5013646;28;19971;-64
2022/03/17 10:12:35;;;;;;;;;;;;;;;8.38;73.38;101297.31;5013563;28;20284;-64
2022/03/17 10:15:19;;;;;;;;;;;;;;;8.39;73.43;101301.69;5013125;28;20335;-65
2022/03/17 10:18:23;;;;;;;;;;;;;;;8.38;73.34;101308.56;5014506;28;20265;-65
2022/03/17 10:21:09;;;;;;;;;;;;;;;8.39;73.30;101309.44;5016400;28;20003;-64
2022/03/17 10:23:55;;;;;;;;;;;;;;;8.39;73.43;101317.19;5016255;28;20300;-64
2022/03/17 10:26:40;;;;;;;;;;;;;;;8.37;73.34;101330.03;5016385;28;19959;-64
2022/03/17 10:29:27;;;;;;;;;;;;;;;8.41;73.42;101337.94;5016045;28;19924;-64
2022/03/17 10:32:14;;;;;;;;;;;;;;;8.40;73.39;101337.03;5017277;28;19924;-64
2022/03/17 10:34:58;;;;;;;;;;;;;;;8.38;73.11;101336.06;5017029;28;19924;-64
2022/03/17 10:37:42;;;;;;;;;;;;;;;8.38;73.08;101338.66;5016768;28;20296;-64
2022/03/17 10:40:31;;;;;;;;;;;;;;;8.38;72.92;101341.25;5016825;28;20009;-64
2022/03/17 10:43:23;;;;;;;;;;;;;;;8.41;73.20;101343.09;5015429;28;19940;-64
2022/03/17 10:46:08;;;;;;;;;;;;;;;8.41;72.92;101340.50;5015926;28;20276;-64
2022/03/17 10:49:07;;;;;;;;;;;;;;;8.42;73.03;101348.31;5016186;28;19924;-64
2022/03/17 10:51:52;;;;;;;;;;;;;;;8.42;72.87;101355.19;5015859;28;20375;-64
2022/03/17 10:54:37;;;;;;;;;;;;;;;8.42;73.06;101358.66;5016355;28;20130;-65
2022/03/17 10:57:25;;;;;;;;;;;;;;;8.41;72.63;101353.44;5016092;28;19924;-64
2022/03/17 11:00:19;;;;;;;;;;;;;;;8.41;72.46;101356.88;5016517;28;19979;-64
2022/03/17 11:03:05;;;;;;;;;;;;;;;8.40;72.69;101356.84;5016351;28;20344;-64
2022/03/17 11:05:55;;;;;;;;;;;;;;;8.40;72.51;101364.59;5016370;28;19963;-65
2022/03/17 11:08:40;;;;;;;;;;;;;;;8.41;72.65;101371.53;5016204;28;20277;-64
2022/03/17 11:11:24;;;;;;;;;;;;;;;8.41;72.59;101369.81;5016585;28;19939;-63
2022/03/17 11:14:13;;;;;;;;;;;;;;;8.41;72.64;101369.81;5016211;28;19923;-64
2022/03/17 11:16:58;;;;;;;;;;;;;;;8.42;72.31;101373.25;5016213;28;20038;-64
2022/03/17 11:19:44;;;;;;;;;;;;;;;8.40;72.33;101377.50;5016281;28;20292;-64
2022/03/17 11:22:32;;;;;;;;;;;;;;;8.41;72.51;101387.03;5015543;28;19924;-64
2022/03/17 11:25:20;;;;;;;;;;;;;;;8.41;72.54;101390.47;5015135;28;19924;-64
2022/03/17 11:28:05;;;;;;;;;;;;;;;8.41;72.51;101387.88;5015706;28;19967;-64
2022/03/17 11:30:52;;;;;;;;;;;;;;;8.41;72.56;101400.81;5015028;28;20343;-64
2022/03/17 11:33:37;;;;;;;;;;;;;;;8.41;72.30;101397.34;5015526;28;19923;-64
2022/03/17 11:36:24;;;;;;;;;;;;;;;8.42;72.21;101397.41;5015650;28;19924;-64
2022/03/17 11:39:18;;;;;;;;;;;;;;;8.43;72.36;101403.44;5014492;28;20412;-64
2022/03/17 11:42:22;;;;;;;;;;;;;;;8.43;72.24;101406.94;5014622;28;20020;-65
2022/03/17 11:45:15;;;;;;;;;;;;;;;8.44;72.28;101413.88;5015110;28;19968;-64
2022/03/17 11:48:01;;;;;;;;;;;;;;;8.44;71.95;101410.38;5015506;28;19971;-65
2022/03/17 11:50:46;;;;;;;;;;;;;;;8.44;72.02;101420.72;5014827;28;19924;-64
2022/03/17 11:53:39;;;;;;;;;;;;;;;8.44;71.95;101418.13;5014978;28;19924;-64
2022/03/17 11:56:26;;;;;;;;;;;;;;;8.43;72.22;101422.44;5015126;28;19924;-64
2022/03/17 11:59:13;;;;;;;;;;;;;;;8.41;71.92;101421.47;5015154;28;19924;-64
2022/03/17 12:01:57;;;;;;;;;;;;;;;8.42;71.80;101422.34;5013931;28;19968;-64
2022/03/17 12:04:46;;;;;;;;;;;;;;;8.43;71.89;101431.88;5014305;28;19992;-64
2022/03/17 12:07:44;;;;;;;;;;;;;;;8.44;71.93;101431.97;5015054;28;19924;-64
2022/03/17 12:10:54;;;;;;;;;;;;;;;8.44;72.18;101429.38;5015110;28;19963;-64
2022/03/17 12:13:39;;;;;;;;;;;;;;;8.45;72.00;101436.31;5015205;28;19995;-64
2022/03/17 12:16:37;;;;;;;;;;;;;;;8.46;71.93;101434.59;5014467;28;19967;-64
2022/03/17 12:19:25;;;;;;;;;;;;;;;8.44;71.83;101431.97;5013911;28;19939;-64
2022/03/17 12:22:12;;;;;;;;;;;;;;;8.44;71.63;101447.47;5013975;28;19923;-65
2022/03/17 12:25:01;;;;;;;;;;;;;;;8.43;71.63;101439.63;5014875;28;19980;-64
2022/03/17 12:27:51;;;;;;;;;;;;;;;8.42;71.84;101446.50;5014256;28;20270;-64
2022/03/17 12:30:35;;;;;;;;;;;;;;;8.45;71.75;101443.16;5014207;28;19923;-64
2022/03/17 12:33:20;;;;;;;;;;;;;;;8.45;71.65;101454.41;5015025;28;19971;-65
2022/03/17 12:36:04;;;;;;;;;;;;;;;8.43;71.51;101456.03;5014535;28;19987;-64
2022/03/17 12:38:48;;;;;;;;;;;;;;;8.42;71.58;101451.66;5014595;28;20395;-64
2022/03/17 12:41:32;;;;;;;;;;;;;;;8.41;71.51;101456.78;5014499;28;19925;-64
2022/03/17 12:44:23;;;;;;;;;;;;;;;8.42;71.55;101461.09;5013640;28;20395;-65
2022/03/17 12:47:08;;;;;;;;;;;;;;;8.42;71.31;101455.94;5013598;28;19975;-64
2022/03/17 12:49:52;;;;;;;;;;;;;;;8.41;71.49;101452.47;5014312;28;19979;-67
2022/03/17 12:52:37;;;;;;;;;;;;;;;8.42;71.32;101449.09;5014565;28;19924;-64
2022/03/17 12:55:22;;;;;;;;;;;;;;;8.41;71.19;101460.22;5013700;28;20476;-64
2022/03/17 12:58:05;;;;;;;;;;;;;;;8.40;71.04;101460.16;5013397;28;19924;-65
2022/03/17 13:00:50;;;;;;;;;;;;;;;8.40;70.97;101457.59;5014603;28;19924;-64
2022/03/17 13:03:34;;;;;;;;;;;;;;;8.41;70.99;101461.94;5014276;28;19971;-64
2022/03/17 13:09:32;;;;;;;;;;;;;;;8.41;71.29;101460.22;5013943;28;19924;-64
2022/03/17 13:15:26;;;;;;;;;;;;;;;8.40;70.86;101460.16;5013723;28;20016;-65
2022/03/17 13:18:11;;;;;;;;;;;;;;;8.38;71.11;101465.25;5014124;28;20284;-64
2022/03/17 13:20:59;;;;;;;;;;;;;;;8.36;71.02;101460.03;5013189;28;19925;-64
2022/03/17 13:23:43;;;;;;;;;;;;;;;8.36;70.87;101465.19;5012574;28;20059;-64
2022/03/17 13:26:30;;;;;;;;;;;;;;;8.36;70.76;101467.78;5013977;28;19928;-65
2022/03/17 13:29:14;;;;;;;;;;;;;;;8.35;70.84;101462.50;5013743;28;19940;-64
2022/03/17 13:31:58;;;;;;;;;;;;;;;8.37;70.91;101466.06;5013378;28;19923;-64
2022/03/17 13:34:42;;;;;;;;;;;;;;;8.37;70.82;101469.53;5014149;28;20005;-65
2022/03/17 13:37:33;;;;;;;;;;;;;;;8.38;70.80;101475.56;5014346;28;20013;-64
2022/03/17 13:40:18;;;;;;;;;;;;;;;8.40;71.09;101481.72;5013474;28;19928;-65
2022/03/17 13:43:03;;;;;;;;;;;;;;;8.42;70.81;101485.25;5013035;28;19940;-65
2022/03/17 13:45:48;;;;;;;;;;;;;;;8.44;71.07;101487.91;5012963;28;19948;-64
2022/03/17 13:48:32;;;;;;;;;;;;;;;8.45;71.08;101495.75;5013702;28;19924;-64
2022/03/17 13:51:23;;;;;;;;;;;;;;;8.45;71.06;101489.66;5013915;28;20328;-64
2022/03/17 13:54:07;;;;;;;;;;;;;;;8.44;70.90;101490.47;5015483;28;19987;-65
2022/03/17 13:56:59;;;;;;;;;;;;;;;8.45;70.87;101488.00;5017495;28;19963;-64
2022/03/17 13:59:43;;;;;;;;;;;;;;;8.44;70.95;101488.81;5016789;28;19924;-64
2022/03/17 14:02:27;;;;;;;;;;;;;;;8.44;70.59;101493.97;5017646;28;20027;-64
2022/03/17 14:05:12;;;;;;;;;;;;;;;8.43;70.78;101499.03;5017457;28;19963;-64
2022/03/17 14:07:57;;;;;;;;;;;;;;;8.42;70.79;101502.44;5016698;28;20308;-64
2022/03/17 14:10:40;;;;;;;;;;;;;;;8.43;70.66;101506.78;5017755;28;19972;-64
2022/03/17 14:13:25;;;;;;;;;;;;;;;8.45;70.66;101500.00;5016261;28;20332;-64
2022/03/17 14:16:10;;;;;;;;;;;;;;;8.45;70.86;101511.25;5016684;28;19971;-64
2022/03/17 14:18:55;;;;;;;;;;;;;;;8.45;70.90;101508.66;5016211;28;20331;-64
2022/03/17 14:24:10;;;;;;;;;;;;;;;8.47;70.94;101503.56;5016836;28;19924;-64
2022/03/17 14:24:43;;;;;;;;;;;;;;;8.48;71.10;101506.25;5016938;28;19988;-64
2022/03/17 14:27:27;;;;;;;;;;;;;;;8.45;70.79;101519.00;5015869;28;19923;-64
2022/03/17 14:30:11;;;;;;;;;;;;;;;8.45;70.77;101526.75;5016991;28;19963;-64
2022/03/17 14:32:55;;;;;;;;;;;;;;;8.46;70.64;101532.78;5016996;28;20320;-64
2022/03/17 14:35:39;;;;;;;;;;;;;;;8.47;70.67;101530.31;5016865;28;19972;-64
2022/03/17 14:38:22;;;;;;;;;;;;;;;8.46;70.68;101531.09;5017148;28;20332;-64
2022/03/17 14:41:07;;;;;;;;;;;;;;;8.46;70.61;101519.88;5017121;28;19928;-65
2022/03/17 14:43:53;;;;;;;;;;;;;;;8.45;70.83;101516.41;5015687;28;19971;-64
2022/03/17 14:46:38;;;;;;;;;;;;;;;8.45;70.61;101528.44;5016813;28;20296;-64